Time;durP1;ratioP1;P1;durP2;ratioP2;P2;SDS_P1;SDS_P2;PMS_P1;PMS_P2;Temp;Humidity;BMP_temperature;BMP_pressure;BME280_temperature;BME280_humidity;BME280_pressure;Samples;Min_cycle;Max_cycle;Signal;HPM_P1;HPM_P2
2024/04/21 00:00:59;;;;;;;2.65;1.35;;;6.60;99.90;;;;;;5454920;26;20358;-88
2024/04/21 00:03:24;;;;;;;7.20;1.17;;;6.50;99.90;;;;;;5453513;26;20342;-89
2024/04/21 00:05:50;;;;;;;9.48;1.33;;;6.50;99.90;;;;;;5460858;26;19994;-89
2024/04/21 00:08:15;;;;;;;13.23;1.98;;;6.50;99.90;;;;;;5462212;26;20079;-89
2024/04/21 00:10:41;;;;;;;7.72;1.73;;;6.50;99.90;;;;;;5453942;26;19994;-88
2024/04/21 00:13:07;;;;;;;9.13;1.63;;;6.40;99.90;;;;;;5454711;26;19998;-89
2024/04/21 00:15:32;;;;;;;7.05;1.40;;;6.40;99.90;;;;;;5454429;26;19998;-88
2024/04/21 00:17:58;;;;;;;6.15;1.63;;;6.30;99.90;;;;;;5453995;26;20097;-88
2024/04/21 00:20:23;;;;;;;14.38;2.53;;;6.20;99.90;;;;;;5454435;26;20430;-87
2024/04/21 00:22:49;;;;;;;5.18;1.38;;;6.10;99.90;;;;;;5454408;26;20026;-86
2024/04/21 00:25:15;;;;;;;8.75;1.80;;;6.20;99.90;;;;;;5453744;26;19999;-89
2024/04/21 00:27:41;;;;;;;8.18;1.85;;;6.20;99.90;;;;;;5454084;26;20333;-89
2024/04/21 00:30:10;;;;;;;14.18;2.22;;;6.20;99.90;;;;;;5453531;26;20006;-87
2024/04/21 00:32:36;;;;;;;8.63;2.05;;;6.20;99.90;;;;;;5453268;26;20009;-86
2024/04/21 00:35:02;;;;;;;7.22;1.60;;;6.10;99.90;;;;;;5453847;26;19995;-88
2024/04/21 00:37:28;;;;;;;6.93;1.67;;;6.10;99.90;;;;;;5454075;26;20010;-89
2024/04/21 00:39:53;;;;;;;10.80;1.25;;;6.80;99.90;;;;;;5453010;26;20071;-89
2024/04/21 00:42:19;;;;;;;7.45;1.55;;;6.10;99.90;;;;;;5454106;26;20015;-88
2024/04/21 00:44:44;;;;;;;7.43;1.40;;;6.00;99.90;;;;;;5454154;26;19999;-88
2024/04/21 00:47:10;;;;;;;9.45;1.30;;;6.00;99.90;;;;;;5453596;26;20411;-88
2024/04/21 00:49:36;;;;;;;8.85;1.52;;;6.00;99.90;;;;;;5454029;26;19999;-88
2024/04/21 00:52:02;;;;;;;8.30;1.48;;;6.00;99.90;;;;;;5453677;26;20002;-88
2024/04/21 00:54:28;;;;;;;12.82;1.50;;;6.00;99.90;;;;;;5453445;26;20003;-89
2024/04/21 00:56:54;;;;;;;9.20;1.42;;;5.90;99.90;;;;;;5453793;26;20059;-88
2024/04/21 00:59:22;;;;;;;14.60;1.73;;;6.00;99.90;;;;;;5455457;26;20031;-88
2024/04/21 01:01:47;;;;;;;5.82;1.13;;;5.90;99.90;;;;;;5453828;26;20007;-89
2024/04/21 01:04:13;;;;;;;7.07;1.52;;;5.90;99.90;;;;;;5453480;26;19998;-88
2024/04/21 01:06:40;;;;;;;2.83;0.80;;;5.80;99.90;;;;;;5452955;26;20013;-87
2024/04/21 01:09:05;;;;;;;5.05;0.70;;;5.80;99.90;;;;;;5453761;26;19999;-88
2024/04/21 01:11:31;;;;;;;3.25;0.80;;;5.70;99.90;;;;;;5453577;26;19999;-88
2024/04/21 01:13:57;;;;;;;4.63;0.88;;;5.70;99.90;;;;;;5452785;26;20003;-88
2024/04/21 01:16:22;;;;;;;3.75;1.15;;;5.70;99.90;;;;;;5453590;26;19999;-89
2024/04/21 01:18:48;;;;;;;4.70;1.27;;;5.70;99.90;;;;;;5453301;26;20076;-88
2024/04/21 01:21:15;;;;;;;8.15;1.25;;;5.70;99.90;;;;;;5452796;26;19995;-89
2024/04/21 01:23:41;;;;;;;5.18;1.33;;;5.70;99.90;;;;;;5453379;26;20076;-88
2024/04/21 01:26:07;;;;;;;6.00;1.23;;;5.60;99.90;;;;;;5468040;26;19999;-88
2024/04/21 01:28:32;;;;;;;7.00;1.58;;;5.60;99.90;;;;;;5453733;26;20053;-89
2024/04/21 01:30:58;;;;;;;9.80;1.70;;;5.70;99.90;;;;;;5453173;26;19999;-88
2024/04/21 01:33:23;;;;;;;12.18;1.40;;;5.70;99.90;;;;;;5452954;26;20018;-89
2024/04/21 01:35:49;;;;;;;7.90;1.25;;;5.70;99.90;;;;;;5452899;26;20015;-87
2024/04/21 01:38:15;;;;;;;7.68;1.30;;;5.70;99.90;;;;;;5461007;26;19999;-89
2024/04/21 01:40:41;;;;;;;5.03;1.17;;;5.70;99.90;;;;;;5464020;26;20026;-87
2024/04/21 01:43:06;;;;;;;5.97;1.25;;;5.80;99.90;;;;;;5464607;26;19999;-88
2024/04/21 01:45:32;;;;;;;7.32;1.40;;;5.80;99.90;;;;;;5468052;26;19995;-88
2024/04/21 01:47:57;;;;;;;6.80;1.55;;;5.80;99.90;;;;;;5464353;26;19995;-88
2024/04/21 01:50:24;;;;;;;6.70;1.38;;;5.70;99.90;;;;;;5456045;26;20022;-88
2024/04/21 01:52:50;;;;;;;9.70;2.30;;;5.70;99.90;;;;;;5456362;26;20007;-88
2024/04/21 01:55:15;;;;;;;8.25;2.25;;;5.60;99.90;;;;;;5456264;26;20002;-88
2024/04/21 01:57:42;;;;;;;10.90;2.03;;;5.60;99.90;;;;;;5455903;26;20014;-88
2024/04/21 02:00:08;;;;;;;21.42;3.22;;;5.60;99.90;;;;;;5456405;26;20003;-87
2024/04/21 02:02:34;;;;;;;7.50;1.60;;;5.60;99.90;;;;;;5455730;26;20009;-86
2024/04/21 02:04:59;;;;;;;7.13;1.35;;;6.40;99.90;;;;;;5456269;26;19999;-88
2024/04/21 02:07:25;;;;;;;18.00;2.05;;;5.60;99.90;;;;;;5456403;26;20011;-88
2024/04/21 02:09:50;;;;;;;15.73;1.95;;;5.60;99.90;;;;;;5455952;26;20010;-86
2024/04/21 02:12:16;;;;;;;16.40;2.25;;;5.60;99.90;;;;;;5456625;26;19999;-86
2024/04/21 02:14:41;;;;;;;18.27;2.53;;;5.60;99.90;;;;;;5456150;26;20003;-89
2024/04/21 02:17:07;;;;;;;13.68;2.38;;;5.60;99.90;;;;;;5455369;26;20005;-87
2024/04/21 02:19:32;;;;;;;11.48;1.85;;;5.60;99.90;;;;;;5455912;26;20330;-87
2024/04/21 02:21:58;;;;;;;17.52;2.42;;;5.60;99.90;;;;;;5455394;26;20010;-89
2024/04/21 02:24:26;;;;;;;15.15;1.92;;;5.60;99.90;;;;;;5455274;26;20402;-89
2024/04/21 02:26:52;;;;;;;6.60;2.17;;;5.60;99.90;;;;;;5456033;26;20001;-86
2024/04/21 02:29:17;;;;;;;7.13;1.70;;;5.60;99.90;;;;;;5455853;26;20002;-86
2024/04/21 02:31:43;;;;;;;14.27;2.10;;;5.60;99.90;;;;;;5455397;26;20426;-86
2024/04/21 02:34:08;;;;;;;9.70;2.20;;;5.60;99.90;;;;;;5455838;26;20337;-88
2024/04/21 02:36:34;;;;;;;15.48;3.00;;;5.60;99.90;;;;;;5455957;26;19994;-88
2024/04/21 02:38:59;;;;;;;18.67;2.33;;;5.50;99.90;;;;;;5455269;26;20026;-88
2024/04/21 02:41:25;;;;;;;14.18;1.75;;;5.50;99.90;;;;;;5455632;26;20013;-87
2024/04/21 02:43:50;;;;;;;11.50;1.80;;;5.60;99.90;;;;;;5464264;26;19998;-89
2024/04/21 02:46:17;;;;;;;12.07;2.38;;;5.60;99.90;;;;;;5460897;26;19994;-88
2024/04/21 02:48:42;;;;;;;14.40;2.08;;;5.60;99.90;;;;;;5455566;26;20015;-88
2024/04/21 02:51:08;;;;;;;8.98;2.42;;;5.60;99.90;;;;;;5455261;26;20007;-88
2024/04/21 02:53:33;;;;;;;12.27;2.38;;;5.60;99.90;;;;;;5453875;26;20003;-88
2024/04/21 02:55:59;;;;;;;11.25;1.33;;;6.00;99.90;;;;;;5455465;26;20068;-88
2024/04/21 02:58:24;;;;;;;9.00;1.55;;;5.70;99.90;;;;;;5454863;26;20021;-87
2024/04/21 03:00:50;;;;;;;15.95;1.67;;;5.60;99.90;;;;;;5454796;26;20318;-88
2024/04/21 03:03:16;;;;;;;13.32;2.28;;;5.70;99.90;;;;;;5455203;26;20331;-89
2024/04/21 03:05:42;;;;;;;6.75;1.75;;;5.70;99.90;;;;;;5454361;26;20049;-88
2024/04/21 03:08:08;;;;;;;14.00;2.10;;;5.70;99.90;;;;;;5455774;26;20007;-88
2024/04/21 03:10:33;;;;;;;12.25;2.08;;;5.70;99.90;;;;;;5455579;26;20426;-88
2024/04/21 03:12:59;;;;;;;10.85;1.50;;;5.80;99.90;;;;;;5454612;26;20076;-88
2024/04/21 03:15:25;;;;;;;8.70;1.48;;;5.80;99.90;;;;;;5455335;26;20066;-90
2024/04/21 03:17:51;;;;;;;11.25;2.25;;;5.90;99.90;;;;;;5455253;26;20039;-88
2024/04/21 03:20:16;;;;;;;17.92;2.33;;;5.90;99.90;;;;;;5454185;26;20450;-87
2024/04/21 03:22:42;;;;;;;6.93;2.08;;;5.80;99.90;;;;;;5455443;26;20334;-87
2024/04/21 03:25:07;;;;;;;4.88;1.58;;;5.70;99.90;;;;;;5454837;26;19998;-88
2024/04/21 03:27:33;;;;;;;6.80;1.13;;;5.60;99.90;;;;;;5454640;26;20006;-88
2024/04/21 03:29:59;;;;;;;6.78;1.50;;;5.50;99.90;;;;;;5455230;26;19994;-88
2024/04/21 03:32:24;;;;;;;5.50;1.08;;;5.40;99.90;;;;;;5455040;26;20011;-88
2024/04/21 03:34:55;;;;;;;7.47;0.82;;;5.40;99.90;;;;;;5454445;26;19999;-88
2024/04/21 03:37:21;;;;;;;4.75;0.82;;;5.30;99.90;;;;;;5455297;26;20390;-88
2024/04/21 03:39:47;;;;;;;2.58;0.80;;;5.20;99.90;;;;;;5454772;26;20010;-89
2024/04/21 03:42:13;;;;;;;7.20;1.15;;;5.10;99.90;;;;;;5454533;26;20003;-88
2024/04/21 03:44:38;;;;;;;4.75;0.88;;;5.00;99.90;;;;;;5455081;26;20015;-88
2024/04/21 03:47:04;;;;;;;4.88;0.93;;;5.00;99.90;;;;;;5454967;26;20003;-88
2024/04/21 03:49:29;;;;;;;1.90;0.68;;;4.90;99.90;;;;;;5454239;26;20342;-88
2024/04/21 03:51:55;;;;;;;5.95;1.23;;;4.90;99.90;;;;;;5456132;26;20030;-88
2024/04/21 03:54:20;;;;;;;10.20;1.17;;;4.80;99.90;;;;;;5458238;26;19995;-89
2024/04/21 03:56:46;;;;;;;2.63;0.95;;;4.80;99.90;;;;;;5456707;26;20411;-87
2024/04/21 03:59:11;;;;;;;4.18;0.80;;;4.80;99.90;;;;;;5457850;26;20449;-88
2024/04/21 04:01:37;;;;;;;6.00;1.25;;;4.80;99.90;;;;;;5456871;26;20337;-88
2024/04/21 04:04:03;;;;;;;3.72;1.00;;;4.80;99.90;;;;;;5467483;26;20438;-89
2024/04/21 04:06:28;;;;;;;4.47;1.20;;;4.80;99.90;;;;;;5453589;26;19999;-89
2024/04/21 04:08:55;;;;;;;5.32;1.02;;;4.90;99.90;;;;;;5454619;26;20011;-89
2024/04/21 04:11:21;;;;;;;7.35;0.88;;;4.90;99.90;;;;;;5453846;26;19999;-88
2024/04/21 04:13:47;;;;;;;10.05;1.00;;;4.90;99.90;;;;;;5454593;26;20075;-89
2024/04/21 04:16:12;;;;;;;5.72;1.13;;;5.00;99.90;;;;;;5453934;26;20003;-88
2024/04/21 04:18:38;;;;;;;11.55;1.00;;;4.90;99.90;;;;;;5453775;26;20005;-87
2024/04/21 04:21:03;;;;;;;10.98;1.48;;;4.90;99.90;;;;;;5454180;26;20003;-88
2024/04/21 04:23:29;;;;;;;4.30;1.13;;;4.90;99.90;;;;;;5453704;26;19995;-88
2024/04/21 04:25:54;;;;;;;7.43;1.60;;;5.00;99.90;;;;;;5454104;26;20014;-87
2024/04/21 04:28:22;;;;;;;6.75;1.30;;;5.00;99.90;;;;;;5454134;26;20023;-88
2024/04/21 04:30:47;;;;;;;9.40;1.58;;;5.00;99.90;;;;;;5453843;26;20018;-88
2024/04/21 04:33:13;;;;;;;7.03;1.52;;;5.00;99.90;;;;;;5454412;26;19998;-88
2024/04/21 04:35:38;;;;;;;7.90;1.50;;;5.00;99.90;;;;;;5453964;26;20074;-88
2024/04/21 04:38:04;;;;;;;7.07;1.45;;;5.00;99.90;;;;;;5453291;26;20009;-88
2024/04/21 04:40:30;;;;;;;11.25;1.50;;;5.00;99.90;;;;;;5453914;26;20450;-89
2024/04/21 04:42:57;;;;;;;9.98;1.55;;;5.00;99.90;;;;;;5453996;26;20013;-88
2024/04/21 04:45:22;;;;;;;4.28;1.40;;;5.00;99.90;;;;;;5453460;26;20014;-88
2024/04/21 04:47:48;;;;;;;10.15;1.40;;;5.00;99.90;;;;;;5453494;26;20448;-87
2024/04/21 04:50:13;;;;;;;10.88;1.50;;;5.00;99.90;;;;;;5453978;26;19999;-89
2024/04/21 04:52:39;;;;;;;7.63;1.35;;;5.10;99.90;;;;;;5453118;26;20010;-88
2024/04/21 04:55:05;;;;;;;8.13;1.52;;;5.10;99.90;;;;;;5453534;26;19999;-88
2024/04/21 04:57:30;;;;;;;11.90;1.55;;;5.10;99.90;;;;;;5453503;26;20007;-88
2024/04/21 04:59:56;;;;;;;11.00;1.40;;;5.10;99.90;;;;;;5453212;26;20100;-88
2024/04/21 05:02:22;;;;;;;7.20;1.40;;;5.10;99.90;;;;;;5453636;26;20002;-88
2024/04/21 05:04:47;;;;;;;5.45;1.33;;;5.10;99.90;;;;;;5453142;26;20003;-89
2024/04/21 05:07:13;;;;;;;17.77;2.63;;;5.10;99.90;;;;;;5453079;26;19999;-89
2024/04/21 05:09:38;;;;;;;9.40;1.70;;;5.10;99.90;;;;;;5453476;26;20014;-88
2024/04/21 05:12:04;;;;;;;9.65;1.60;;;5.10;99.90;;;;;;5453768;26;19999;-89
2024/04/21 05:14:30;;;;;;;5.45;1.17;;;5.10;99.90;;;;;;5453050;26;20002;-88
2024/04/21 05:16:55;;;;;;;5.05;1.67;;;5.20;99.90;;;;;;5454134;26;20502;-88
2024/04/21 05:19:21;;;;;;;7.78;1.33;;;5.20;99.90;;;;;;5456454;26;20002;-87
2024/04/21 05:21:46;;;;;;;10.15;2.38;;;5.20;99.90;;;;;;5462756;26;19998;-87
2024/04/21 05:24:12;;;;;;;6.72;1.42;;;5.20;99.90;;;;;;5462496;26;20002;-89
2024/04/21 05:26:37;;;;;;;11.70;1.58;;;5.20;99.90;;;;;;5456407;26;20494;-88
2024/04/21 05:29:03;;;;;;;13.55;1.15;;;5.20;99.90;;;;;;5456490;26;20434;-88
2024/04/21 05:31:29;;;;;;;7.75;1.38;;;5.30;99.90;;;;;;5456687;26;19999;-88
2024/04/21 05:33:54;;;;;;;3.72;1.30;;;5.20;99.90;;;;;;5456203;26;20010;-89
2024/04/21 05:36:20;;;;;;;5.47;1.35;;;5.30;99.90;;;;;;5456667;26;20006;-90
2024/04/21 05:38:45;;;;;;;3.70;1.00;;;5.30;99.90;;;;;;5456497;26;19999;-88
2024/04/21 05:41:11;;;;;;;8.88;2.25;;;5.30;99.90;;;;;;5456014;26;19999;-88
2024/04/21 05:43:36;;;;;;;6.40;1.10;;;5.40;99.90;;;;;;5456765;26;20014;-89
2024/04/21 05:46:03;;;;;;;5.03;1.45;;;5.40;99.90;;;;;;5456801;26;20007;-88
2024/04/21 05:48:29;;;;;;;5.00;0.88;;;5.50;99.90;;;;;;5456336;26;20154;-88
2024/04/21 05:50:54;;;;;;;3.65;0.80;;;5.60;99.90;;;;;;5456601;26;20011;-89
2024/04/21 05:53:20;;;;;;;2.83;0.80;;;5.60;99.90;;;;;;5456337;26;19998;-89
2024/04/21 05:55:46;;;;;;;0.80;0.43;;;5.70;99.90;;;;;;5455935;26;20070;-88
2024/04/21 05:58:11;;;;;;;4.97;0.80;;;5.60;99.90;;;;;;5456871;26;20003;-89
2024/04/21 06:00:37;;;;;;;2.85;1.02;;;5.60;99.90;;;;;;5456342;26;19995;-89
2024/04/21 06:03:04;;;;;;;2.53;0.65;;;5.50;99.90;;;;;;5455993;26;20003;-89
2024/04/21 06:05:29;;;;;;;3.17;0.73;;;5.50;99.90;;;;;;5456456;26;19998;-89
2024/04/21 06:07:55;;;;;;;1.55;0.50;;;5.50;99.90;;;;;;5456686;26;20021;-87
2024/04/21 06:10:21;;;;;;;2.88;0.68;;;5.50;99.90;;;;;;5456213;26;19998;-87
2024/04/21 06:12:47;;;;;;;0.30;0.30;;;5.40;99.90;;;;;;5456638;26;20009;-89
2024/04/21 06:15:16;;;;;;;1.92;0.77;;;5.30;99.90;;;;;;5456364;26;20021;-88
2024/04/21 06:17:41;;;;;;;0.63;0.47;;;5.40;99.90;;;;;;5455884;26;20446;-87
2024/04/21 06:20:08;;;;;;;3.63;0.52;;;5.30;99.90;;;;;;5456160;26;20013;-88
2024/04/21 06:22:33;;;;;;;1.65;0.50;;;5.30;99.90;;;;;;5456285;26;20030;-89
2024/04/21 06:24:59;;;;;;;0.85;0.60;;;5.30;99.90;;;;;;5455451;26;20337;-89
2024/04/21 06:27:24;;;;;;;1.60;0.75;;;5.40;99.90;;;;;;5455742;26;20341;-88
2024/04/21 06:29:50;;;;;;;1.80;0.47;;;5.40;99.90;;;;;;5454551;26;19999;-89
2024/04/21 06:32:16;;;;;;;1.02;0.47;;;5.50;99.90;;;;;;5456010;26;20009;-89
2024/04/21 06:34:41;;;;;;;1.83;0.60;;;5.50;99.90;;;;;;5456282;26;20025;-88
2024/04/21 06:37:07;;;;;;;1.08;0.45;;;5.50;99.90;;;;;;5455293;26;20318;-87
2024/04/21 06:39:32;;;;;;;1.38;0.40;;;5.50;99.90;;;;;;5455939;26;19998;-88
2024/04/21 06:41:58;;;;;;;4.30;0.60;;;5.40;99.90;;;;;;5469127;26;20007;-88
2024/04/21 06:44:23;;;;;;;1.58;0.55;;;5.50;99.90;;;;;;5455867;26;20007;-87
2024/04/21 06:46:49;;;;;;;2.65;0.40;;;5.50;99.90;;;;;;5456154;26;19995;-89
2024/04/21 06:49:14;;;;;;;1.63;0.38;;;5.50;99.90;;;;;;5455726;26;20075;-88
2024/04/21 06:51:40;;;;;;;2.50;0.40;;;5.50;99.90;;;;;;5455160;26;20003;-87
2024/04/21 06:54:06;;;;;;;3.60;0.80;;;5.50;99.90;;;;;;5457480;26;19999;-89
2024/04/21 06:56:31;;;;;;;2.35;0.65;;;5.50;99.90;;;;;;5462017;26;19999;-88
2024/04/21 06:58:57;;;;;;;1.25;0.50;;;5.60;99.90;;;;;;5460058;26;19998;-89
2024/04/21 07:01:22;;;;;;;3.15;0.60;;;5.50;99.90;;;;;;5460536;26;20398;-87
2024/04/21 07:03:48;;;;;;;0.47;0.47;;;5.50;99.90;;;;;;5459044;26;19995;-87
2024/04/21 07:06:13;;;;;;;5.22;0.60;;;5.50;99.90;;;;;;5455018;26;20017;-88
2024/04/21 07:08:39;;;;;;;1.92;0.60;;;5.50;99.90;;;;;;5455950;26;20018;-88
2024/04/21 07:11:05;;;;;;;1.23;0.57;;;5.60;99.90;;;;;;5455997;26;20007;-88
2024/04/21 07:13:31;;;;;;;2.17;0.57;;;5.70;99.90;;;;;;5455375;26;19998;-89
2024/04/21 07:15:56;;;;;;;1.33;0.60;;;5.70;99.90;;;;;;5455900;26;19998;-87
2024/04/21 07:18:22;;;;;;;3.72;0.90;;;5.80;99.90;;;;;;5455647;26;19994;-88
2024/04/21 07:20:47;;;;;;;4.05;0.80;;;5.80;99.90;;;;;;5454769;26;20009;-88
2024/04/21 07:23:13;;;;;;;5.15;1.23;;;5.70;99.90;;;;;;5455378;26;20437;-88
2024/04/21 07:25:39;;;;;;;3.13;0.90;;;5.80;99.90;;;;;;5455352;26;20338;-89
2024/04/21 07:28:04;;;;;;;7.75;0.90;;;5.80;99.90;;;;;;5454851;26;20438;-87
2024/04/21 07:30:34;;;;;;;6.10;0.90;;;5.80;99.90;;;;;;5455281;26;20010;-89
2024/04/21 07:33:00;;;;;;;3.80;1.25;;;6.60;99.90;;;;;;5454753;26;19995;-89
2024/04/21 07:35:25;;;;;;;4.32;1.20;;;5.80;99.90;;;;;;5455262;26;19998;-88
2024/04/21 07:37:51;;;;;;;3.10;0.98;;;5.80;99.90;;;;;;5455045;26;19994;-89
2024/04/21 07:40:16;;;;;;;2.83;1.20;;;5.80;99.90;;;;;;5454453;26;19999;-89
2024/04/21 07:42:43;;;;;;;3.28;1.20;;;5.90;99.90;;;;;;5455148;26;20014;-88
2024/04/21 07:45:11;;;;;;;6.38;1.30;;;5.90;99.90;;;;;;5455323;26;19999;-90
2024/04/21 07:47:37;;;;;;;4.97;1.58;;;6.00;99.90;;;;;;5455053;26;20449;-88
2024/04/21 07:50:06;;;;;;;5.78;2.10;;;6.10;99.90;;;;;;5455358;26;19999;-88
2024/04/21 07:52:32;;;;;;;3.10;2.00;;;6.10;99.90;;;;;;5455263;26;19999;-89
2024/04/21 07:54:58;;;;;;;4.28;1.80;;;6.10;99.90;;;;;;5454688;26;20014;-89
2024/04/21 07:57:23;;;;;;;5.22;2.25;;;6.20;99.90;;;;;;5455525;26;19995;-89
2024/04/21 07:59:49;;;;;;;6.95;2.60;;;6.30;99.90;;;;;;5464411;26;20002;-90
2024/04/21 08:02:15;;;;;;;4.30;1.70;;;6.40;99.90;;;;;;5461480;26;20005;-89
2024/04/21 08:04:40;;;;;;;7.82;2.55;;;6.40;99.90;;;;;;5455985;26;20351;-90
2024/04/21 08:07:09;;;;;;;6.50;2.47;;;6.50;99.90;;;;;;5455353;26;19994;-88
2024/04/21 08:09:34;;;;;;;8.38;2.28;;;6.50;99.90;;;;;;5454822;26;20013;-90
2024/04/21 08:12:01;;;;;;;7.95;2.28;;;6.60;99.90;;;;;;5455259;26;20438;-90
2024/04/21 08:14:26;;;;;;;5.60;2.05;;;6.70;99.90;;;;;;5455052;26;20071;-90
2024/04/21 08:16:52;;;;;;;8.70;2.47;;;6.70;99.90;;;;;;5454525;26;20003;-90
2024/04/21 08:19:17;;;;;;;8.90;2.50;;;6.80;99.90;;;;;;5454667;26;20014;-90
2024/04/21 08:21:43;;;;;;;9.73;2.08;;;6.90;99.90;;;;;;5455026;26;20002;-90
2024/04/21 08:24:08;;;;;;;9.43;1.88;;;6.90;99.90;;;;;;5454322;26;20510;-89
2024/04/21 08:26:34;;;;;;;8.00;1.60;;;6.90;99.90;;;;;;5454237;26;20601;-89
2024/04/21 08:29:00;;;;;;;9.20;1.52;;;6.90;99.90;;;;;;5454752;26;19999;-90
2024/04/21 08:31:25;;;;;;;8.38;1.60;;;7.00;99.90;;;;;;5453469;26;19998;-90
2024/04/21 08:33:51;;;;;;;9.50;2.45;;;7.00;99.90;;;;;;5454617;26;20003;-90
2024/04/21 08:36:16;;;;;;;7.90;1.67;;;7.00;99.90;;;;;;5454063;26;19995;-90
2024/04/21 08:38:42;;;;;;;8.80;1.63;;;7.10;99.90;;;;;;5455197;26;20442;-90
2024/04/21 08:41:09;;;;;;;6.70;1.65;;;7.10;99.90;;;;;;5454851;26;20495;-90
2024/04/21 08:43:36;;;;;;;6.40;1.60;;;7.20;99.90;;;;;;5454406;26;20400;-89
2024/04/21 08:46:02;;;;;;;5.50;1.30;;;7.30;99.90;;;;;;5455846;26;20345;-89
2024/04/21 08:48:29;;;;;;;8.35;1.63;;;7.30;99.90;;;;;;5457289;26;19999;-90
2024/04/21 08:50:55;;;;;;;7.60;1.55;;;7.90;99.90;;;;;;5456801;26;20010;-89
2024/04/21 08:53:21;;;;;;;7.25;1.35;;;7.30;99.90;;;;;;5457766;26;20013;-89
2024/04/21 08:55:48;;;;;;;15.05;1.77;;;7.30;99.90;;;;;;5463312;26;20002;-89
2024/04/21 08:58:18;;;;;;;12.98;1.90;;;7.40;99.90;;;;;;5469763;26;20002;-89
2024/04/21 09:00:45;;;;;;;5.70;1.40;;;7.60;99.90;;;;;;5468093;26;20003;-88
2024/04/21 09:03:14;;;;;;;9.48;2.38;;;7.30;99.90;;;;;;5470613;26;20232;-89
2024/04/21 09:05:41;;;;;;;12.88;1.60;;;7.40;99.90;;;;;;5468149;26;20039;-89
2024/04/21 09:08:07;;;;;;;7.60;1.67;;;7.40;99.90;;;;;;5458507;26;20049;-88
2024/04/21 09:10:32;;;;;;;8.55;1.70;;;7.90;99.90;;;;;;5457750;26;20002;-88
2024/04/21 09:12:59;;;;;;;10.07;2.10;;;7.60;99.90;;;;;;5457082;26;20014;-89
2024/04/21 09:15:24;;;;;;;6.75;1.75;;;7.60;99.90;;;;;;5457635;26;19995;-89
2024/04/21 09:17:50;;;;;;;10.52;1.70;;;7.70;99.90;;;;;;5465001;26;20014;-89
2024/04/21 09:20:15;;;;;;;5.25;1.92;;;7.80;99.90;;;;;;5462810;26;19999;-89
2024/04/21 09:22:41;;;;;;;10.90;1.73;;;7.90;99.90;;;;;;5457391;26;20003;-89
2024/04/21 09:25:07;;;;;;;9.48;1.52;;;8.00;99.90;;;;;;5457242;26;20427;-88
2024/04/21 09:27:35;;;;;;;6.57;1.80;;;8.00;99.90;;;;;;5456614;26;20474;-88
2024/04/21 09:30:01;;;;;;;6.70;1.42;;;8.00;99.90;;;;;;5457096;26;20005;-87
2024/04/21 09:32:28;;;;;;;8.88;1.52;;;8.00;99.90;;;;;;5457114;26;20015;-89
2024/04/21 09:34:55;;;;;;;7.75;1.80;;;8.10;99.90;;;;;;5456466;26;20002;-89
2024/04/21 09:37:20;;;;;;;11.35;2.88;;;8.10;99.90;;;;;;5456941;26;19999;-88
2024/04/21 09:39:47;;;;;;;13.98;2.88;;;8.10;99.90;;;;;;5456370;26;20039;-89
2024/04/21 09:42:17;;;;;;;6.78;2.33;;;8.10;99.90;;;;;;5456731;26;20009;-90
2024/04/21 09:44:44;;;;;;;8.07;1.50;;;8.20;99.90;;;;;;5457039;26;20075;-89
2024/04/21 09:47:14;;;;;;;7.78;2.40;;;8.30;99.90;;;;;;5456202;26;19998;-89
2024/04/21 09:49:42;;;;;;;7.32;2.30;;;8.30;99.90;;;;;;5457319;26;19999;-89
2024/04/21 09:52:08;;;;;;;11.13;2.58;;;8.30;99.90;;;;;;5460107;26;20003;-89
2024/04/21 09:54:34;;;;;;;11.27;2.40;;;8.30;99.90;;;;;;5461485;26;20010;-88
2024/04/21 09:57:11;;;;;;;9.48;2.67;;;8.40;99.90;;;;;;5461305;26;19999;-90
2024/04/21 09:59:38;;;;;;;9.25;2.60;;;8.50;99.90;;;;;;5462590;26;20329;-89
2024/04/21 10:02:18;;;;;;;7.72;2.15;;;8.50;99.90;;;;;;5461040;26;19999;-90
2024/04/21 10:04:59;;;;;;;8.73;2.17;;;8.60;99.90;;;;;;5455528;26;20023;-88
2024/04/21 10:07:25;;;;;;;10.50;3.28;;;8.70;99.90;;;;;;5456602;26;20048;-87
2024/04/21 10:09:52;;;;;;;7.63;2.10;;;8.70;99.90;;;;;;5455891;26;20010;-87
2024/04/21 10:12:21;;;;;;;12.93;1.58;;;8.80;99.90;;;;;;5456973;26;19999;-88
2024/04/21 10:14:50;;;;;;;5.05;1.65;;;8.80;99.90;;;;;;5455923;26;20449;-88
2024/04/21 10:17:16;;;;;;;7.55;1.60;;;8.90;99.90;;;;;;5456562;26;20343;-88
2024/04/21 10:19:42;;;;;;;7.40;1.50;;;8.90;99.90;;;;;;5456561;26;20011;-88
2024/04/21 10:22:07;;;;;;;5.93;1.35;;;8.90;99.90;;;;;;5455946;26;20427;-88
2024/04/21 10:24:34;;;;;;;9.60;1.38;;;8.90;99.90;;;;;;5455980;26;20014;-87
2024/04/21 10:27:01;;;;;;;7.00;2.33;;;8.90;99.90;;;;;;5455917;26;20005;-87
2024/04/21 10:29:30;;;;;;;2.65;1.00;;;8.90;99.90;;;;;;5455579;26;20003;-88
2024/04/21 10:32:09;;;;;;;5.38;1.25;;;9.00;99.90;;;;;;5455870;26;20030;-89
2024/04/21 10:34:46;;;;;;;5.72;1.58;;;9.00;99.90;;;;;;5457442;26;20010;-89
2024/04/21 10:37:25;;;;;;;2.60;1.05;;;9.00;99.90;;;;;;5469004;26;19999;-89
2024/04/21 10:39:58;;;;;;;6.13;1.63;;;9.10;99.90;;;;;;5457212;26;19998;-88
2024/04/21 10:42:24;;;;;;;6.88;1.30;;;9.10;99.90;;;;;;5455540;26;20025;-88
2024/04/21 10:44:49;;;;;;;3.90;1.05;;;9.30;99.90;;;;;;5455009;26;20007;-88
2024/04/21 10:47:16;;;;;;;2.92;1.15;;;9.20;99.90;;;;;;5455433;26;20023;-90
2024/04/21 10:49:42;;;;;;;4.38;1.40;;;9.30;99.90;;;;;;5455761;26;20002;-89
2024/04/21 10:52:08;;;;;;;3.03;0.90;;;9.30;99.90;;;;;;5455431;26;19995;-89
2024/04/21 10:54:34;;;;;;;8.55;1.17;;;9.40;99.90;;;;;;5455681;26;19999;-89
2024/04/21 10:57:03;;;;;;;4.30;1.25;;;9.40;99.90;;;;;;5454562;26;20009;-88
2024/04/21 10:59:30;;;;;;;5.13;1.30;;;9.50;99.90;;;;;;5454862;26;20003;-88
2024/04/21 11:01:55;;;;;;;5.03;1.48;;;9.50;99.90;;;;;;5455504;26;20450;-90
2024/04/21 11:04:21;;;;;;;3.67;1.05;;;9.50;99.90;;;;;;5455037;26;19999;-88
2024/04/21 11:06:46;;;;;;;3.95;1.20;;;9.50;99.90;;;;;;5456158;26;20313;-88
2024/04/21 11:09:12;;;;;;;2.28;1.02;;;9.50;99.90;;;;;;5455470;26;20372;-88
2024/04/21 11:11:38;;;;;;;8.20;1.52;;;9.50;99.90;;;;;;5455079;26;19998;-88
2024/04/21 11:14:03;;;;;;;5.82;1.33;;;9.50;99.90;;;;;;5455478;26;20011;-89
2024/04/21 11:16:30;;;;;;;3.83;1.45;;;9.60;99.90;;;;;;5455147;26;20005;-88
2024/04/21 11:18:57;;;;;;;2.30;1.00;;;9.70;99.90;;;;;;5454957;26;20009;-89
2024/04/21 11:21:22;;;;;;;4.65;1.30;;;9.60;99.90;;;;;;5455451;26;20357;-89
2024/04/21 11:23:48;;;;;;;3.85;1.05;;;9.70;99.90;;;;;;5456036;26;20010;-89
2024/04/21 11:26:16;;;;;;;2.90;0.93;;;9.70;99.90;;;;;;5454552;26;19995;-89
2024/04/21 11:28:43;;;;;;;5.85;1.27;;;9.70;99.90;;;;;;5455248;26;20007;-89
2024/04/21 11:31:08;;;;;;;4.05;1.17;;;9.80;99.90;;;;;;5455337;26;19994;-88
2024/04/21 11:33:35;;;;;;;2.25;1.02;;;9.80;99.90;;;;;;5454688;26;20018;-89
2024/04/21 11:36:13;;;;;;;4.68;1.10;;;9.80;99.90;;;;;;5455263;26;20010;-89
2024/04/21 11:38:39;;;;;;;2.70;1.13;;;9.70;99.90;;;;;;5455053;26;19998;-90
2024/04/21 11:41:05;;;;;;;4.03;1.27;;;9.70;99.90;;;;;;5454646;26;20003;-89
2024/04/21 11:43:30;;;;;;;1.67;1.40;;;9.70;99.90;;;;;;5454934;26;19999;-89
2024/04/21 11:46:00;;;;;;;2.75;0.80;;;9.80;99.90;;;;;;5454642;26;20003;-88
2024/04/21 11:48:31;;;;;;;6.70;1.30;;;9.90;99.90;;;;;;5454472;26;20014;-89
2024/04/21 11:50:57;;;;;;;3.55;1.27;;;9.90;99.90;;;;;;5455057;26;20011;-89
2024/04/21 11:53:22;;;;;;;5.28;0.85;;;10.00;99.90;;;;;;5456985;26;20007;-87
2024/04/21 11:55:48;;;;;;;3.30;0.88;;;10.00;99.90;;;;;;5461694;26;20003;-89
2024/04/21 11:58:14;;;;;;;1.98;1.10;;;10.00;99.90;;;;;;5455258;26;20437;-89
2024/04/21 12:00:39;;;;;;;2.08;1.20;;;10.00;99.90;;;;;;5454321;26;20002;-90
2024/04/21 12:03:05;;;;;;;2.70;1.40;;;10.00;99.90;;;;;;5454461;26;20002;-90
2024/04/21 12:05:30;;;;;;;4.63;1.00;;;10.00;99.90;;;;;;5454566;26;19999;-88
2024/04/21 12:07:56;;;;;;;4.28;1.25;;;9.90;99.90;;;;;;5454723;26;20003;-90
2024/04/21 12:10:21;;;;;;;2.10;0.80;;;9.90;99.90;;;;;;5455032;26;19995;-89
2024/04/21 12:12:47;;;;;;;1.15;0.93;;;10.00;99.90;;;;;;5455040;26;20107;-90
2024/04/21 12:15:12;;;;;;;1.85;1.10;;;10.10;99.90;;;;;;5454367;26;20003;-87
2024/04/21 12:17:38;;;;;;;4.28;1.08;;;10.20;99.90;;;;;;5454602;26;19999;-89
2024/04/21 12:20:04;;;;;;;1.50;0.73;;;10.30;99.90;;;;;;5454374;26;20007;-88
2024/04/21 12:22:29;;;;;;;2.50;1.30;;;10.40;99.90;;;;;;5453775;26;20071;-89
2024/04/21 12:24:55;;;;;;;2.42;1.27;;;10.40;99.90;;;;;;5454440;26;19999;-89
2024/04/21 12:27:22;;;;;;;1.63;1.10;;;10.40;99.90;;;;;;5452987;26;20049;-88
2024/04/21 12:29:48;;;;;;;1.40;1.15;;;10.40;99.90;;;;;;5453831;26;20003;-89
2024/04/21 12:32:13;;;;;;;1.20;0.63;;;10.50;99.90;;;;;;5454538;26;19999;-88
2024/04/21 12:34:39;;;;;;;1.20;0.90;;;10.50;99.90;;;;;;5454486;26;20435;-89
2024/04/21 12:37:04;;;;;;;2.20;1.00;;;10.50;99.90;;;;;;5453486;26;20466;-89
2024/04/21 12:39:30;;;;;;;2.90;1.05;;;10.70;99.90;;;;;;5454149;26;20012;-89
2024/04/21 12:41:56;;;;;;;2.38;0.93;;;10.70;99.90;;;;;;5454507;26;20060;-90
2024/04/21 12:44:21;;;;;;;3.60;1.30;;;10.70;99.90;;;;;;5454400;26;20362;-89
2024/04/21 12:46:48;;;;;;;2.50;1.10;;;10.80;99.90;;;;;;5456939;26;20057;-90
2024/04/21 12:49:13;;;;;;;4.18;1.25;;;10.90;99.90;;;;;;5460072;26;20006;-89